Burnet, TX

3:27 AM CDT on March 24, 2017 (GMT -0500)
City of Burnet | | Change Station

Elev 1283 ft 30.75 °N, 98.22 °W | Updated 4 seconds ago

Mostly Cloudy
Mostly Cloudy
66.4 °F
Feels Like 66.4 °F
N
3.4
Wind Variable Wind from SSE
Gusts 4.9 mph

Today
High -- | Low -- °F
--% Chance of Precip.
Yesterday
High -- | Low -- °F
Precip. -- in
Pressure 29.84 in
Visibility 10.0 miles
Clouds Mostly Cloudy 2400 ft
Dew Point 59 °F
Humidity 77%
Rainfall 0.00 in
Snow Depth Not available.
7:31 AM 7:47 PM
Waning Crescent, 17% visible
METAR KBMQ 240753Z AUTO 18014G28KT 10SM BKN024 19/14 A2988 RMK AO2 PK WND 18032/0733 SLP103 T01890144 $
Pressure 29.84 in
Visibility 10.0 miles
Clouds Mostly Cloudy 2400 ft
Dew Point 59 °F
Humidity 77%
Rainfall 0.00 in
Snow Depth Not available.
7:31 AM 7:47 PM
Waning Crescent, 17% visible
METAR KBMQ 240753Z AUTO 18014G28KT 10SM BKN024 19/14 A2988 RMK AO2 PK WND 18032/0733 SLP103 T01890144 $

Get Severe Weather Alerts

Thanks for signing up!

Be on the lookout for a verification email in your inbox.

You'll start receiving the daily forecast at 8 AM.

×

10-Day Weather Forecast

Almanac

Astronomy

Mar. 24, 2017 Rise Set
Actual Time
Civil Twilight
Nautical Twilight
Astronomical Twilight
Moon
Length of Visible Light
Length of Day
Tomorrow will be .
, % of the Moon is Illuminated

Today's Extremes

State Highs State Lows

Community

WunderPhotos

Upload Photos

1,962,540 photos uploaded!

WunderBlog® & News

Nearby

Air Quality

  Air Quality AQ Index Pollutant
Not available.

Snow Depth

Station Depth Elevation

Earthquake Activity

City Distance Mag. Time & Date
Minimum magnitude displayed is 2.5.

Earthquake Activity

City Distance Mag. Time & Date
Minimum magnitude displayed is 2.5.

Coastal Water Temperatures

Place Temperature

Stations

Nearby Weather Stations

Station Location Temp. Windchill Dew Point Humidity Wind Precip. Elev Updated Type
                   

Watches & Warnings

There are currently no watches in effect.